createdAt,value
2022-11-23T08:07:38.079Z,95292.22
2022-11-23T08:08:39.543Z,95292.91
2022-11-23T08:09:40.968Z,95291.56
2022-11-23T08:10:47.207Z,95283.81
2022-11-23T08:11:51.404Z,95284.25
2022-11-23T08:12:56.132Z,95289.16
2022-11-23T08:13:57.439Z,95278.53
2022-11-23T08:14:58.861Z,95285.22
2022-11-23T08:16:01.108Z,95278.03
2022-11-23T08:17:02.629Z,95277.56
2022-11-23T08:18:05.044Z,95269.56
2022-11-23T08:19:06.528Z,95279.78
2022-11-23T08:20:08.254Z,95286.28
2022-11-23T08:21:09.690Z,95290.47
2022-11-23T08:22:14.720Z,95287.16
2022-11-23T08:23:17.314Z,95283.88
2022-11-23T08:24:18.801Z,95283.75
2022-11-23T08:25:20.167Z,95279.84
2022-11-23T08:26:21.723Z,95283.91
2022-11-23T08:27:26.216Z,95281.81
2022-11-23T08:28:27.590Z,95289.16
2022-11-23T08:29:29.671Z,95283.53
2022-11-23T08:30:32.959Z,95291.97
2022-11-23T08:31:34.426Z,95292.13
2022-11-23T08:32:39.872Z,95281.00
2022-11-23T08:33:41.354Z,95286.06
2022-11-23T08:34:44.425Z,95290.69
2022-11-23T08:35:45.851Z,95291.75
2022-11-23T08:36:48.177Z,95295.03
2022-11-23T08:37:53.438Z,95276.78
2022-11-23T08:38:54.903Z,95300.13
2022-11-23T08:39:56.243Z,95286.78
2022-11-23T08:41:02.313Z,95290.03
2022-11-23T08:42:04.470Z,95287.38
2022-11-23T08:43:09.751Z,95273.13
2022-11-23T08:44:12.221Z,95284.06
2022-11-23T08:45:13.713Z,95274.63
2022-11-23T08:46:15.715Z,95282.50
2022-11-23T08:47:17.111Z,95285.94
2022-11-23T08:48:21.495Z,95284.34
2022-11-23T08:49:22.916Z,95285.66
2022-11-23T08:50:24.364Z,95280.53
2022-11-23T08:51:25.760Z,95284.97
2022-11-23T08:52:27.368Z,95292.00
2022-11-23T08:53:28.860Z,95285.00
2022-11-23T08:54:32.001Z,95274.31
2022-11-23T08:55:36.569Z,95287.00
2022-11-23T08:56:37.912Z,95282.25
2022-11-23T08:57:39.270Z,95280.06
2022-11-23T08:58:40.616Z,95289.13
2022-11-23T08:59:42.018Z,95283.34
2022-11-23T09:00:43.467Z,95286.25
2022-11-23T09:01:45.308Z,95278.53
2022-11-23T09:02:50.923Z,95274.66
2022-11-23T09:03:54.660Z,95288.06
2022-11-23T09:04:56.656Z,95286.78
2022-11-23T09:06:00.275Z,95291.00
2022-11-23T09:07:03.243Z,95286.84
2022-11-23T09:08:05.349Z,95288.94
2022-11-23T09:09:06.891Z,95288.69
2022-11-23T09:10:09.957Z,95291.19
2022-11-23T09:11:17.560Z,95283.41
2022-11-23T09:12:19.214Z,95283.50
2022-11-23T09:13:20.838Z,95263.31
2022-11-23T09:14:23.447Z,95276.47
2022-11-23T09:15:25.561Z,95288.41
2022-11-23T09:16:32.419Z,95289.97
2022-11-23T09:17:36.093Z,95288.03
2022-11-23T09:18:37.789Z,95293.47
2022-11-23T09:19:39.471Z,95284.53
2022-11-23T09:20:41.309Z,95276.97
2022-11-23T09:21:43.315Z,95283.66
2022-11-23T09:22:50.911Z,95285.53
2022-11-23T09:23:52.290Z,95279.69
2022-11-23T09:24:53.895Z,95276.69
2022-11-23T09:26:01.414Z,95282.00
2022-11-23T09:27:02.771Z,95283.84
2022-11-23T09:28:04.362Z,95271.06
2022-11-23T09:29:09.566Z,95286.97
2022-11-23T09:30:11.742Z,95270.78
2022-11-23T09:31:13.116Z,95293.56
2022-11-23T09:32:14.575Z,95285.59
2022-11-23T09:33:16.400Z,95280.53
2022-11-23T09:34:17.859Z,95281.41
2022-11-23T09:35:19.181Z,95271.66
2022-11-23T09:36:24.540Z,95289.75
2022-11-23T09:37:25.923Z,95279.09
2022-11-23T09:38:55.057Z,95286.53
2022-11-23T09:39:52.825Z,95290.22
2022-11-23T09:41:13.454Z,95292.56
2022-11-23T09:42:45.472Z,95292.75
2022-11-23T09:44:11.182Z,95304.94
2022-11-23T09:45:38.086Z,95310.25
2022-11-23T09:47:08.097Z,95297.22
2022-11-23T09:48:31.519Z,95307.84
2022-11-23T09:49:45.183Z,95307.31
2022-11-23T09:50:48.297Z,95305.91
2022-11-23T09:51:51.211Z,95288.91
2022-11-23T09:52:53.947Z,95295.31
2022-11-23T09:54:10.571Z,95299.47
2022-11-23T09:55:24.482Z,95289.09
2022-11-23T09:56:30.275Z,95294.34
2022-11-23T09:57:34.549Z,95286.34
2022-11-23T09:58:40.453Z,95295.91
2022-11-23T09:59:47.125Z,95287.81
2022-11-23T10:00:51.546Z,95289.97
2022-11-23T10:01:57.229Z,95284.72
2022-11-23T10:02:58.835Z,95295.91
2022-11-23T10:04:00.421Z,95284.78
2022-11-23T10:05:03.984Z,95281.59
2022-11-23T10:06:14.073Z,95285.31
2022-11-23T10:07:22.771Z,95292.59
2022-11-23T10:08:56.574Z,95284.56
2022-11-23T10:10:12.283Z,95288.00
2022-11-23T10:11:23.904Z,95284.78
2022-11-23T10:12:50.015Z,95278.47
2022-11-23T10:14:19.448Z,95275.31
2022-11-23T10:15:28.414Z,95272.72
2022-11-23T10:16:44.510Z,95267.78
2022-11-23T10:18:05.190Z,95268.31
2022-11-23T10:19:18.152Z,95271.09
2022-11-23T10:20:34.684Z,95271.41
2022-11-23T10:21:39.161Z,95275.25
2022-11-23T10:22:58.522Z,95276.16
2022-11-23T10:24:19.207Z,95264.09
2022-11-23T10:25:22.411Z,95277.81
2022-11-23T10:26:32.321Z,95272.00
2022-11-23T10:27:33.735Z,95276.59
2022-11-23T10:28:36.344Z,95280.44
2022-11-23T10:29:38.883Z,95277.50
2022-11-23T10:30:40.610Z,95279.38
2022-11-23T10:31:48.915Z,95279.06
2022-11-23T10:33:05.334Z,95280.28
2022-11-23T10:34:12.940Z,95271.63
2022-11-23T10:35:27.494Z,95267.81
2022-11-23T10:36:28.921Z,95275.47
2022-11-23T10:37:31.583Z,95268.03
2022-11-23T10:38:34.216Z,95274.97
2022-11-23T10:39:35.588Z,95261.50
2022-11-23T10:40:40.949Z,95219.69
2022-11-23T10:41:44.172Z,95265.00
2022-11-23T10:42:53.679Z,95264.38
2022-11-23T10:43:58.304Z,95261.50
2022-11-23T10:45:01.447Z,95266.88
2022-11-23T10:46:33.751Z,95259.00
2022-11-23T10:47:39.154Z,95263.72
2022-11-23T10:48:40.826Z,95257.34
2022-11-23T10:49:57.231Z,95257.06
2022-11-23T10:51:16.882Z,95230.47
2022-11-23T10:52:33.301Z,95264.97
2022-11-23T10:53:35.029Z,95267.63
2022-11-23T10:54:52.575Z,95257.06
2022-11-23T10:55:58.016Z,95261.88
2022-11-23T10:57:01.726Z,95259.00
2022-11-23T10:58:03.362Z,95258.41
2022-11-23T10:59:04.797Z,95251.25
2022-11-23T11:00:09.795Z,95263.63
2022-11-23T11:01:25.555Z,95261.66
2022-11-23T11:02:32.512Z,95261.25
2022-11-23T11:03:35.092Z,95251.91
2022-11-23T11:04:36.505Z,95261.50
2022-11-23T11:06:07.564Z,95255.00
2022-11-23T11:07:22.260Z,95253.53
2022-11-23T11:08:32.271Z,95258.25
2022-11-23T11:09:34.213Z,95246.84
2022-11-23T11:10:58.883Z,95250.50
2022-11-23T11:12:00.262Z,95252.25
2022-11-23T11:13:02.009Z,95251.88
2022-11-23T11:14:17.026Z,95251.16
2022-11-23T11:15:19.066Z,95228.31
2022-11-23T11:16:34.975Z,95238.97
2022-11-23T11:17:37.843Z,95230.44
2022-11-23T11:18:39.252Z,95238.00
2022-11-23T11:19:40.725Z,95251.47
2022-11-23T11:20:45.857Z,95233.22
2022-11-23T11:21:47.612Z,95226.00
2022-11-23T11:22:49.482Z,95245.41
2022-11-23T11:23:59.409Z,95243.09
2022-11-23T11:25:04.326Z,95237.00
2022-11-23T11:26:21.680Z,95220.38
2022-11-23T11:27:25.729Z,95231.94
2022-11-23T11:28:48.736Z,95226.19
2022-11-23T11:30:00.393Z,95227.03
2022-11-23T11:31:18.435Z,95234.06
2022-11-23T11:32:38.933Z,95227.16
2022-11-23T11:34:05.929Z,95228.84
2022-11-23T11:35:17.619Z,95237.66
2022-11-23T11:36:25.219Z,95224.41
2022-11-23T11:37:34.636Z,95223.66
2022-11-23T11:38:37.811Z,95221.22
2022-11-23T11:39:46.260Z,95223.34
2022-11-23T11:40:50.185Z,95217.88
2022-11-23T11:41:54.758Z,95217.34
2022-11-23T11:43:23.043Z,95217.13
2022-11-23T11:44:33.381Z,95216.91
2022-11-23T11:45:54.499Z,95217.03
2022-11-23T11:47:25.475Z,95201.63
2022-11-23T11:48:39.704Z,95201.97
2022-11-23T11:49:45.764Z,95206.50
2022-11-23T11:50:52.554Z,95214.38
2022-11-23T11:52:02.348Z,95196.06
2022-11-23T11:53:08.311Z,95207.69
2022-11-23T11:54:37.282Z,95209.78
2022-11-23T11:57:35.049Z,95206.22
2022-11-23T11:58:41.718Z,95203.56
2022-11-23T11:59:48.824Z,95207.63
2022-11-23T12:00:51.526Z,95204.63
2022-11-23T12:02:24.424Z,95200.00
2022-11-23T12:03:37.255Z,95193.94
2022-11-23T12:04:48.245Z,95187.03
2022-11-23T12:05:52.759Z,95197.53
2022-11-23T12:07:16.042Z,95188.19
2022-11-23T12:08:50.793Z,95179.91
2022-11-23T12:10:07.028Z,95192.97
2022-11-23T12:11:10.207Z,95189.41
2022-11-23T12:12:16.654Z,95174.84
2022-11-23T12:13:19.920Z,95209.31
2022-11-23T12:14:21.486Z,95203.25
2022-11-23T12:15:55.661Z,95199.16
2022-11-23T12:17:37.023Z,95195.63
2022-11-23T12:18:45.866Z,95194.19
2022-11-23T12:20:04.680Z,95192.81
2022-11-23T12:21:28.070Z,95188.41
2022-11-23T12:22:44.827Z,95198.66
2022-11-23T12:24:14.194Z,95197.47
2022-11-23T12:25:37.233Z,95197.13
2022-11-23T12:26:54.409Z,95195.28
2022-11-23T12:28:16.829Z,95193.97
2022-11-23T12:29:36.144Z,95201.13
2022-11-23T12:30:47.594Z,95201.13
2022-11-23T12:32:26.756Z,95207.84
2022-11-23T12:33:42.535Z,95205.72
2022-11-23T12:35:11.842Z,95198.47
2022-11-23T12:36:25.135Z,95199.94
2022-11-23T12:38:00.466Z,95210.91
2022-11-23T12:39:21.953Z,95191.19
2022-11-23T12:40:37.980Z,95191.97
2022-11-23T12:41:39.340Z,95189.13
2022-11-23T12:42:45.899Z,95183.63
2022-11-23T12:43:59.427Z,95185.66
2022-11-23T12:45:27.038Z,95186.69
2022-11-23T12:46:49.386Z,95190.84
2022-11-23T12:48:12.326Z,95186.41
2022-11-23T12:49:47.462Z,95194.34
2022-11-23T12:51:07.304Z,95194.41
2022-11-23T12:52:33.176Z,95193.16
2022-11-23T12:54:22.374Z,95195.31
2022-11-23T12:55:30.830Z,95185.16
2022-11-23T12:56:51.511Z,95182.66
2022-11-23T12:58:25.316Z,95169.28
2022-11-23T12:59:36.148Z,95166.38
2022-11-23T13:00:46.079Z,95177.63
2022-11-23T13:01:57.360Z,95176.50
2022-11-23T13:02:58.693Z,95182.41
2022-11-23T13:04:15.028Z,95178.88
2022-11-23T13:05:30.751Z,95173.78
2022-11-23T13:07:26.213Z,95167.38
2022-11-23T13:08:39.092Z,95168.16
2022-11-23T13:09:59.351Z,95174.09
2022-11-23T13:11:28.341Z,95165.66
2022-11-23T13:12:38.580Z,95164.69
2022-11-23T13:14:15.238Z,95162.88
2022-11-23T13:15:19.226Z,95165.47
2022-11-23T13:16:44.348Z,95165.13
2022-11-23T13:17:57.653Z,95168.66
2022-11-23T13:19:26.680Z,95177.84
2022-11-23T13:20:42.265Z,95171.38
2022-11-23T13:21:46.075Z,95165.13
2022-11-23T13:22:49.095Z,95163.66
2022-11-23T13:23:50.756Z,95160.00
2022-11-23T13:25:14.132Z,95161.41
2022-11-23T13:26:18.891Z,95153.47
2022-11-23T13:27:32.028Z,95156.25
2022-11-23T13:28:33.548Z,95156.56
2022-11-23T13:29:50.324Z,95153.88
2022-11-23T13:31:16.942Z,95160.44
2022-11-23T13:32:57.678Z,95158.06
2022-11-23T13:34:20.360Z,95151.91
2022-11-23T13:35:24.535Z,95158.75
2022-11-23T13:37:56.265Z,95139.34
2022-11-23T13:38:59.147Z,95132.75
2022-11-23T13:40:03.569Z,95119.31
2022-11-23T13:41:34.030Z,95143.59
2022-11-23T13:42:35.756Z,95144.19
2022-11-23T13:43:37.271Z,95124.50
2022-11-23T13:44:41.908Z,95135.31
2022-11-23T13:45:43.541Z,95126.97
2022-11-23T13:47:00.782Z,95115.28
2022-11-23T13:48:34.192Z,95118.81
2022-11-23T13:49:48.639Z,95115.63
2022-11-23T13:50:50.848Z,95120.38
2022-11-23T13:52:24.441Z,95116.22
2022-11-23T13:53:38.976Z,95111.47
2022-11-23T13:54:40.358Z,95114.91
2022-11-23T13:55:42.698Z,95122.50
2022-11-23T13:56:44.845Z,95113.22
2022-11-23T13:58:21.693Z,95111.88
2022-11-23T13:59:27.433Z,95102.59
2022-11-23T14:00:48.952Z,95106.63
2022-11-23T14:02:08.752Z,95110.41
2022-11-23T14:03:48.303Z,95098.66
2022-11-23T14:04:52.825Z,95105.34
2022-11-23T14:05:59.351Z,95113.81
2022-11-23T14:07:08.739Z,95112.97
2022-11-23T14:08:12.528Z,95104.06
2022-11-23T14:09:51.263Z,95111.88
2022-11-23T14:10:54.173Z,95106.44
2022-11-23T14:12:07.678Z,95106.81
2022-11-23T14:13:17.965Z,95103.97
2022-11-23T14:14:23.429Z,95106.56
2022-11-23T14:15:29.031Z,95104.03
2022-11-23T14:16:46.115Z,95106.94
2022-11-23T14:17:58.719Z,95101.53
2022-11-23T14:19:32.047Z,95108.19
2022-11-23T14:20:48.575Z,95103.41
2022-11-23T14:21:58.905Z,95092.63
2022-11-23T14:23:22.153Z,95098.25
2022-11-23T14:24:46.392Z,95093.50
2022-11-23T14:26:15.921Z,95096.53
2022-11-23T14:27:47.846Z,95085.44
2022-11-23T14:29:07.528Z,95083.47
2022-11-23T14:30:50.159Z,95083.81
2022-11-23T14:31:57.709Z,95080.97
2022-11-23T14:33:11.327Z,95082.00
2022-11-23T14:34:50.329Z,95078.16
2022-11-23T14:35:51.621Z,95079.00
2022-11-23T14:37:34.295Z,95048.81
2022-11-23T14:39:07.074Z,95054.16
2022-11-23T14:40:38.118Z,95074.19
2022-11-23T14:41:42.314Z,95070.00
2022-11-23T14:42:50.562Z,95077.97
2022-11-23T14:43:53.088Z,95066.47
2022-11-23T14:44:57.869Z,95076.06
2022-11-23T14:46:04.413Z,95070.25
2022-11-23T14:47:07.827Z,95073.16
2022-11-23T14:48:22.479Z,95070.63
2022-11-23T14:49:24.824Z,95067.50
2022-11-23T14:50:29.292Z,95059.63
2022-11-23T14:51:34.282Z,95055.69
2022-11-23T14:52:37.004Z,95054.28
2022-11-23T14:53:46.886Z,95058.91
2022-11-23T14:54:50.915Z,95058.47
2022-11-23T14:55:52.393Z,95054.19
2022-11-23T14:57:01.464Z,95052.56
2022-11-23T14:58:05.342Z,95045.94
2022-11-23T14:59:36.718Z,95061.06
2022-11-23T15:00:44.219Z,95070.22
2022-11-23T15:01:53.031Z,95061.47
2022-11-23T15:02:56.632Z,95061.91
2022-11-23T15:04:00.087Z,95046.72
2022-11-23T15:05:12.448Z,95064.78
2022-11-23T15:06:18.273Z,95067.41
2022-11-23T15:07:23.533Z,95054.03
2022-11-23T15:08:30.074Z,95061.81
2022-11-23T15:09:54.245Z,95070.13
2022-11-23T15:11:13.003Z,95052.16
2022-11-23T15:12:29.543Z,95063.50
2022-11-23T15:13:39.207Z,95068.97
2022-11-23T15:14:43.363Z,95066.56
2022-11-23T15:15:45.758Z,95065.59
2022-11-23T15:16:47.679Z,95067.78
2022-11-23T15:18:02.613Z,95044.41
2022-11-23T15:19:17.999Z,95067.09
2022-11-23T15:20:20.531Z,95050.84
2022-11-23T15:21:28.801Z,95059.84
2022-11-23T15:22:32.048Z,95059.06
2022-11-23T15:23:57.212Z,95055.13
2022-11-23T15:25:08.210Z,95059.75
2022-11-23T15:26:46.287Z,95058.16
2022-11-23T15:27:45.267Z,95046.84
2022-11-23T15:28:46.833Z,95032.28
2022-11-23T15:29:54.384Z,95057.97
2022-11-23T15:30:58.653Z,95056.06
2022-11-23T15:32:34.671Z,95055.03
2022-11-23T15:33:25.594Z,95042.84
2022-11-23T15:34:27.824Z,95071.47
2022-11-23T15:35:34.202Z,95061.09
2022-11-23T15:36:38.333Z,95063.75
2022-11-23T15:37:51.345Z,95065.19
2022-11-23T15:38:54.370Z,95055.22
2022-11-23T15:39:56.639Z,95066.09
2022-11-23T15:41:04.998Z,95064.25
2022-11-23T15:42:07.063Z,95064.41
2022-11-23T15:43:15.958Z,95063.00
2022-11-23T15:44:30.441Z,95077.66
2022-11-23T15:45:35.930Z,95074.22
2022-11-23T15:46:38.777Z,95071.63
2022-11-23T15:47:40.232Z,95080.06
2022-11-23T15:48:41.607Z,95076.47
2022-11-23T15:49:43.031Z,95066.19
2022-11-23T15:50:51.319Z,95078.91
2022-11-23T15:51:59.616Z,95077.06
2022-11-23T15:53:02.255Z,95076.31
2022-11-23T15:54:04.035Z,95079.66
2022-11-23T15:55:14.441Z,95069.97
2022-11-23T15:56:34.181Z,95090.69
2022-11-23T15:57:35.775Z,95072.72
2022-11-23T15:58:37.329Z,95086.69
2022-11-23T15:59:49.001Z,95100.34
2022-11-23T16:01:00.343Z,95096.22
2022-11-23T16:02:07.155Z,95090.88
2022-11-23T16:03:28.955Z,95097.09
2022-11-23T16:04:40.058Z,95100.78
2022-11-23T16:05:41.460Z,95092.81
2022-11-23T16:06:47.637Z,95101.94
2022-11-23T16:08:00.620Z,95087.22
2022-11-23T16:09:28.229Z,95103.78
2022-11-23T16:10:32.082Z,95099.50
2022-11-23T16:11:36.567Z,95086.59
2022-11-23T16:12:51.385Z,95106.44
2022-11-23T16:13:52.771Z,95108.34
2022-11-23T16:14:56.058Z,95119.09
2022-11-23T16:16:01.231Z,95107.28
2022-11-23T16:17:17.778Z,95116.00
2022-11-23T16:18:24.720Z,95115.47
2022-11-23T16:19:31.370Z,95113.31
2022-11-23T16:20:33.006Z,95114.66
2022-11-23T16:21:34.472Z,95126.72
2022-11-23T16:22:40.005Z,95123.44
2022-11-23T16:23:54.191Z,95126.28
2022-11-23T16:25:09.952Z,95128.72
2022-11-23T16:26:13.116Z,95129.03
2022-11-23T16:27:15.291Z,95136.06
2022-11-23T16:28:22.578Z,95140.34
2022-11-23T16:29:26.537Z,95139.44
2022-11-23T16:30:36.420Z,95147.13
2022-11-23T16:31:40.009Z,95151.44
2022-11-23T16:32:44.962Z,95158.31
2022-11-23T16:33:46.363Z,95160.19
2022-11-23T16:34:48.087Z,95157.81
2022-11-23T16:35:50.169Z,95157.03
2022-11-23T16:36:52.846Z,95170.09
2022-11-23T16:37:54.281Z,95159.66
2022-11-23T16:38:59.686Z,95143.88
2022-11-23T16:40:04.231Z,95173.38
2022-11-23T16:41:05.706Z,95180.16
2022-11-23T16:42:07.129Z,95160.81
2022-11-23T16:43:12.516Z,95157.38
2022-11-23T16:44:13.996Z,95177.81
2022-11-23T16:45:15.619Z,95181.34
2022-11-23T16:46:17.146Z,95179.56
2022-11-23T16:47:24.438Z,95182.25
2022-11-23T16:48:25.726Z,95181.78
2022-11-23T16:49:27.102Z,95171.91
2022-11-23T16:50:31.155Z,95181.97
2022-11-23T16:51:32.520Z,95187.56
2022-11-23T16:52:36.932Z,95190.28
2022-11-23T16:54:11.453Z,95184.41
2022-11-23T16:55:03.000Z,95191.44
2022-11-23T16:56:04.693Z,95183.38
2022-11-23T16:57:06.262Z,95182.31
2022-11-23T16:58:16.605Z,95184.28
2022-11-23T16:59:18.786Z,95186.97
2022-11-23T17:00:22.423Z,95185.28
2022-11-23T17:01:26.499Z,95189.56
2022-11-23T17:02:27.989Z,95183.22
2022-11-23T17:03:29.525Z,95189.47
2022-11-23T17:04:31.195Z,95192.91
2022-11-23T17:05:32.952Z,95191.97
2022-11-23T17:06:34.309Z,95191.28
2022-11-23T17:07:35.686Z,95190.47
2022-11-23T17:08:37.132Z,95197.72
2022-11-23T17:09:42.720Z,95194.28
2022-11-23T17:10:44.241Z,95182.69
2022-11-23T17:11:49.980Z,95191.31
2022-11-23T17:12:54.555Z,95194.56
2022-11-23T17:13:56.890Z,95200.63
2022-11-23T17:14:59.626Z,95203.28
2022-11-23T17:16:01.107Z,95189.91
2022-11-23T17:17:03.694Z,95203.50
2022-11-23T17:18:05.216Z,95206.28
2022-11-23T17:19:24.509Z,95208.25
2022-11-23T17:20:25.870Z,95222.81
2022-11-23T17:21:27.386Z,95210.03
2022-11-23T17:22:28.841Z,95225.88
2022-11-23T17:23:30.171Z,95220.59
2022-11-23T17:24:32.014Z,95223.44
2022-11-23T17:25:34.901Z,95227.03
2022-11-23T17:26:43.044Z,95232.91
2022-11-23T17:27:46.130Z,95225.22
2022-11-23T17:28:47.570Z,95241.31
2022-11-23T17:29:56.026Z,95231.94
2022-11-23T17:30:57.507Z,95229.00
2022-11-23T17:31:59.032Z,95230.00
2022-11-23T17:33:03.879Z,95241.13
2022-11-23T17:34:05.239Z,95221.84
2022-11-23T17:35:06.950Z,95227.75
2022-11-23T17:36:09.636Z,95238.81
2022-11-23T17:37:18.261Z,95217.69
2022-11-23T17:38:24.999Z,95227.38
2022-11-23T17:39:28.266Z,95242.91
2022-11-23T17:40:30.081Z,95245.41
2022-11-23T17:41:31.474Z,95233.31
2022-11-23T17:42:35.773Z,95228.50
2022-11-23T17:43:37.568Z,95237.50
2022-11-23T17:44:39.172Z,95249.53
2022-11-23T17:45:41.281Z,95249.47
2022-11-23T17:46:43.996Z,95251.66
2022-11-23T17:47:45.751Z,95242.25
2022-11-23T17:48:55.139Z,95257.50
2022-11-23T17:49:57.993Z,95243.94
2022-11-23T17:50:59.620Z,95246.69
2022-11-23T17:52:01.150Z,95254.91
2022-11-23T17:53:02.591Z,95243.31
2022-11-23T17:54:04.038Z,95251.97
2022-11-23T17:55:06.088Z,95254.28
2022-11-23T17:56:16.905Z,95255.84
2022-11-23T17:57:27.551Z,95245.50
2022-11-23T17:58:29.161Z,95248.63
2022-11-23T17:59:31.281Z,95262.31
2022-11-23T18:00:33.161Z,95259.19
2022-11-23T18:01:34.604Z,95258.44
2022-11-23T18:02:36.100Z,95259.38
2022-11-23T18:03:37.555Z,95269.47
2022-11-23T18:04:39.097Z,95258.19
2022-11-23T18:05:40.442Z,95265.06
